Time;durP1;ratioP1;P1;durP2;ratioP2;P2;SDS_P1;SDS_P2;PMS_P1;PMS_P2;Temp;Humidity;BMP_temperature;BMP_pressure;BME280_temperature;BME280_humidity;BME280_pressure;Samples;Min_cycle;Max_cycle;Signal;HPM_P1;HPM_P2
2023/12/20 00:01:02;;;;;;;960.97;889.87;;;4.90;99.90;;;;;;5005333;28;20053;-75
2023/12/20 00:03:28;;;;;;;997.03;916.63;;;4.90;99.90;;;;;;5007038;28;20096;-75
2023/12/20 00:05:53;;;;;;;969.97;895.00;;;4.90;99.90;;;;;;5011401;28;20096;-75
2023/12/20 00:08:19;;;;;;;1012.90;930.90;;;4.80;99.90;;;;;;5011270;28;20045;-75
2023/12/20 00:10:45;;;;;;;996.47;919.93;;;4.80;99.90;;;;;;4994572;28;20391;-75
2023/12/20 00:13:11;;;;;;;994.67;914.23;;;4.70;99.90;;;;;;5011536;28;20465;-75
2023/12/20 00:15:37;;;;;;;985.05;910.33;;;4.60;99.90;;;;;;5011541;28;20045;-75
2023/12/20 00:18:03;;;;;;;960.80;886.53;;;4.50;99.90;;;;;;5009684;28;20391;-75
2023/12/20 00:20:29;;;;;;;946.73;873.67;;;4.50;99.90;;;;;;5009626;28;20034;-75
2023/12/20 00:22:57;;;;;;;980.47;904.75;;;4.50;99.90;;;;;;4994551;28;20502;-75
2023/12/20 00:25:23;;;;;;;976.80;902.05;;;4.50;99.90;;;;;;5011645;28;20115;-75
2023/12/20 00:27:49;;;;;;;929.03;861.53;;;4.50;99.90;;;;;;5010399;28;20045;-75
2023/12/20 00:30:15;;;;;;;927.33;859.77;;;4.50;99.90;;;;;;5010299;28;20515;-75
2023/12/20 00:32:46;;;;;;;983.30;903.00;;;4.40;99.90;;;;;;4991559;28;20043;-75
2023/12/20 00:35:15;;;;;;;935.80;865.28;;;4.40;99.90;;;;;;4994720;28;20416;-76
2023/12/20 00:37:42;;;;;;;934.38;865.35;;;4.50;99.90;;;;;;5010263;28;20060;-76
2023/12/20 00:40:08;;;;;;;937.85;869.28;;;4.50;99.90;;;;;;5010372;28;20038;-76
2023/12/20 00:42:35;;;;;;;964.05;889.88;;;4.50;99.90;;;;;;4993836;28;20120;-75
2023/12/20 00:45:01;;;;;;;996.63;917.05;;;4.50;99.90;;;;;;4985264;28;20045;-75
2023/12/20 00:47:26;;;;;;;935.97;868.10;;;4.60;99.90;;;;;;5010956;28;20045;-75
2023/12/20 00:49:52;;;;;;;974.70;899.57;;;4.60;99.90;;;;;;5010926;28;20041;-75
2023/12/20 00:52:18;;;;;;;992.33;908.23;;;4.60;99.90;;;;;;5009774;28;20037;-75
2023/12/20 00:54:44;;;;;;;949.72;878.20;;;4.70;99.90;;;;;;4988974;28;20042;-75
2023/12/20 00:57:10;;;;;;;893.22;829.90;;;4.60;99.90;;;;;;5010406;28;20042;-76
2023/12/20 00:59:36;;;;;;;905.50;844.07;;;4.60;99.90;;;;;;5015057;28;20045;-76
2023/12/20 01:02:02;;;;;;;950.47;877.73;;;4.60;99.90;;;;;;5010222;28;20103;-74
2023/12/20 01:04:28;;;;;;;933.80;864.60;;;4.60;99.90;;;;;;4990822;28;20281;-76
2023/12/20 01:06:53;;;;;;;923.37;856.43;;;4.60;99.90;;;;;;5009407;28;20042;-76
2023/12/20 01:09:19;;;;;;;941.73;870.30;;;4.70;99.90;;;;;;5010282;28;20034;-76
2023/12/20 01:11:48;;;;;;;950.67;881.03;;;4.70;99.90;;;;;;5010131;28;20120;-76
2023/12/20 01:14:14;;;;;;;947.10;877.28;;;4.80;99.90;;;;;;5009941;28;20037;-74
2023/12/20 01:16:39;;;;;;;986.57;906.97;;;4.80;99.90;;;;;;4989723;28;20034;-74
2023/12/20 01:19:05;;;;;;;905.30;842.83;;;4.80;99.90;;;;;;5008318;28;20560;-74
2023/12/20 01:21:31;;;;;;;944.60;872.83;;;4.80;99.90;;;;;;4988497;28;20042;-74
2023/12/20 01:23:56;;;;;;;899.73;836.90;;;4.90;99.90;;;;;;5009561;28;20100;-74
2023/12/20 01:26:22;;;;;;;941.47;871.70;;;4.90;99.90;;;;;;4993355;28;20089;-76
2023/12/20 01:28:48;;;;;;;923.23;851.33;;;4.90;99.90;;;;;;4994253;28;20046;-74
2023/12/20 01:31:13;;;;;;;947.23;874.97;;;4.90;99.90;;;;;;4995741;28;20046;-75
2023/12/20 01:33:39;;;;;;;944.03;872.57;;;4.90;99.90;;;;;;5014758;28;20053;-76
2023/12/20 01:36:05;;;;;;;961.30;888.17;;;4.90;99.90;;;;;;4992913;28;20054;-76
2023/12/20 01:38:30;;;;;;;932.57;860.70;;;4.90;99.90;;;;;;4998169;28;20034;-76
2023/12/20 01:40:56;;;;;;;939.20;867.83;;;4.90;99.90;;;;;;5010983;28;20100;-76
2023/12/20 01:43:22;;;;;;;965.97;890.53;;;4.90;99.90;;;;;;5012333;28;20405;-75
2023/12/20 01:45:48;;;;;;;1020.50;921.03;;;5.00;99.90;;;;;;5010036;28;20049;-76
2023/12/20 01:48:16;;;;;;;980.73;899.57;;;5.00;99.90;;;;;;5009818;28;20069;-75
2023/12/20 01:50:43;;;;;;;935.97;864.20;;;5.10;99.90;;;;;;5010211;28;20044;-75
2023/12/20 01:53:11;;;;;;;986.60;910.42;;;5.10;99.90;;;;;;5010144;28;20073;-75
2023/12/20 01:55:39;;;;;;;947.25;878.83;;;5.10;99.90;;;;;;5004337;28;20042;-75
2023/12/20 01:58:09;;;;;;;977.15;902.50;;;5.10;99.90;;;;;;4992510;28;20038;-75
2023/12/20 02:00:36;;;;;;;964.25;889.63;;;5.10;99.90;;;;;;5007951;28;20041;-75
2023/12/20 02:03:02;;;;;;;972.67;896.55;;;5.20;99.90;;;;;;5009846;28;20034;-75
2023/12/20 02:05:30;;;;;;;1000.38;921.15;;;5.20;99.90;;;;;;5010097;28;20038;-75
2023/12/20 02:07:56;;;;;;;984.08;906.30;;;5.20;99.90;;;;;;5002787;28;20491;-75
2023/12/20 02:10:22;;;;;;;969.60;891.70;;;5.30;99.90;;;;;;5009775;28;20038;-75
2023/12/20 02:12:47;;;;;;;973.63;899.10;;;5.20;99.90;;;;;;4990214;28;20093;-75
2023/12/20 02:15:13;;;;;;;988.00;911.07;;;5.20;99.90;;;;;;5009671;28;20304;-75
2023/12/20 02:17:39;;;;;;;943.03;871.87;;;5.20;99.90;;;;;;5008591;28;20398;-75
2023/12/20 02:20:06;;;;;;;979.83;903.85;;;5.20;99.90;;;;;;5012769;28;20069;-75
2023/12/20 02:22:31;;;;;;;1023.88;938.30;;;5.20;99.90;;;;;;5012568;28;20045;-74
2023/12/20 02:24:57;;;;;;;1008.43;917.17;;;5.20;99.90;;;;;;5013092;28;20034;-75
2023/12/20 02:27:23;;;;;;;933.27;865.23;;;5.30;99.90;;;;;;5012598;28;20046;-75
2023/12/20 02:29:50;;;;;;;940.55;868.80;;;5.30;99.90;;;;;;4996332;28;20458;-75
2023/12/20 02:32:20;;;;;;;978.72;902.33;;;5.30;99.90;;;;;;5013337;28;20549;-75
2023/12/20 02:34:48;;;;;;;965.78;890.38;;;5.30;99.90;;;;;;5012323;28;20054;-75
2023/12/20 02:37:13;;;;;;;948.90;880.10;;;5.30;99.90;;;;;;5011532;28;20052;-75
2023/12/20 02:39:39;;;;;;;922.93;855.90;;;5.30;99.90;;;;;;4995968;28;20397;-75
2023/12/20 02:42:05;;;;;;;1004.73;909.93;;;5.30;99.90;;;;;;5016169;28;20398;-76
2023/12/20 02:44:31;;;;;;;978.53;902.57;;;5.30;99.90;;;;;;5012918;28;20044;-75
2023/12/20 02:46:56;;;;;;;991.50;910.37;;;5.30;99.90;;;;;;5012184;28;20402;-76
2023/12/20 02:49:22;;;;;;;972.20;895.87;;;5.20;99.90;;;;;;4991887;28;20038;-75
2023/12/20 02:51:48;;;;;;;989.83;910.60;;;5.10;99.90;;;;;;4995356;28;20121;-74
2023/12/20 02:54:14;;;;;;;1002.77;922.40;;;5.10;99.90;;;;;;5011748;28;20044;-75
2023/12/20 02:56:39;;;;;;;985.25;905.00;;;5.10;99.90;;;;;;4994161;28;20108;-75
2023/12/20 02:59:05;;;;;;;950.10;874.83;;;5.20;99.90;;;;;;5015020;28;20073;-75
2023/12/20 03:01:32;;;;;;;945.15;875.53;;;5.20;99.90;;;;;;5011838;28;20454;-74
2023/12/20 03:03:57;;;;;;;1006.08;920.17;;;5.20;99.90;;;;;;4993132;28;20034;-75
2023/12/20 03:06:24;;;;;;;969.33;895.17;;;5.20;99.90;;;;;;5012381;28;20044;-75
2023/12/20 03:08:50;;;;;;;964.17;888.55;;;5.20;99.90;;;;;;5012339;28;20088;-75
2023/12/20 03:11:15;;;;;;;966.23;891.00;;;5.20;99.90;;;;;;4992471;28;20076;-75
2023/12/20 03:13:41;;;;;;;941.00;871.03;;;5.20;99.90;;;;;;5011540;28;20038;-75
2023/12/20 03:16:11;;;;;;;998.47;921.03;;;5.20;99.90;;;;;;5012646;28;20045;-75
2023/12/20 03:18:37;;;;;;;970.50;896.38;;;5.20;99.90;;;;;;5012004;28;20049;-75
2023/12/20 03:21:03;;;;;;;1478.45;979.33;;;5.20;99.90;;;;;;5011858;28;20049;-75
2023/12/20 03:23:30;;;;;;;946.00;873.33;;;5.20;99.90;;;;;;5011269;28;20038;-75
2023/12/20 03:25:56;;;;;;;986.55;908.47;;;5.20;99.90;;;;;;5011916;28;20405;-75
2023/12/20 03:28:22;;;;;;;904.10;841.13;;;5.10;99.90;;;;;;5011906;28;20498;-75
2023/12/20 03:30:48;;;;;;;967.67;892.13;;;5.20;99.90;;;;;;5013015;28;20525;-75
2023/12/20 03:33:14;;;;;;;951.30;880.15;;;5.20;99.90;;;;;;4994599;28;20494;-75
2023/12/20 03:35:40;;;;;;;945.07;875.50;;;5.20;99.90;;;;;;5025703;28;20060;-75
2023/12/20 03:38:06;;;;;;;935.50;866.10;;;5.20;99.90;;;;;;5011683;28;20406;-74
2023/12/20 03:40:31;;;;;;;937.47;868.83;;;5.20;99.90;;;;;;4995435;28;20038;-75
2023/12/20 03:42:57;;;;;;;967.67;883.40;;;5.20;99.90;;;;;;4998444;28;20045;-76
2023/12/20 03:45:23;;;;;;;924.60;857.93;;;5.30;99.90;;;;;;4992835;28;20045;-75
2023/12/20 03:47:49;;;;;;;975.93;894.90;;;5.30;99.90;;;;;;5012879;28;20052;-75
2023/12/20 03:50:15;;;;;;;958.38;885.33;;;5.30;99.90;;;;;;5011221;28;20054;-75
2023/12/20 03:52:41;;;;;;;939.60;871.63;;;5.40;99.90;;;;;;5012209;28;20046;-74
2023/12/20 03:55:07;;;;;;;988.50;910.93;;;5.40;99.90;;;;;;5007468;28;20475;-75
2023/12/20 03:57:33;;;;;;;932.37;863.23;;;5.50;99.90;;;;;;5010503;28;20038;-75
2023/12/20 03:59:59;;;;;;;952.80;881.25;;;5.50;99.90;;;;;;5011303;28;20034;-75
2023/12/20 04:02:25;;;;;;;989.75;909.60;;;5.50;99.90;;;;;;4989691;28;20095;-75
2023/12/20 04:04:52;;;;;;;1001.30;919.77;;;5.60;99.90;;;;;;5010906;28;20569;-75
2023/12/20 04:07:18;;;;;;;1011.63;927.03;;;5.60;99.90;;;;;;5004459;28;20037;-75
2023/12/20 04:09:44;;;;;;;941.93;872.23;;;5.60;99.90;;;;;;4994869;28;20041;-75
2023/12/20 04:12:09;;;;;;;989.40;911.13;;;5.60;99.90;;;;;;5011279;28;20402;-75
2023/12/20 04:14:35;;;;;;;1003.20;922.20;;;5.70;99.90;;;;;;5010332;28;20042;-75
2023/12/20 04:17:01;;;;;;;990.80;917.10;;;5.70;99.90;;;;;;5004998;28;20038;-75
2023/12/20 04:19:27;;;;;;;988.97;911.07;;;5.70;99.90;;;;;;5010758;28;20533;-75
2023/12/20 04:21:52;;;;;;;1001.83;913.57;;;5.70;99.90;;;;;;5010768;28;20053;-75
2023/12/20 04:24:18;;;;;;;964.83;891.47;;;5.70;99.90;;;;;;4985045;28;20038;-75
2023/12/20 04:26:44;;;;;;;1030.43;935.57;;;5.70;99.90;;;;;;5010648;28;20034;-75
2023/12/20 04:29:09;;;;;;;977.63;901.80;;;5.70;99.90;;;;;;5010230;28;20073;-75
2023/12/20 04:31:35;;;;;;;995.90;914.13;;;5.80;99.90;;;;;;5004663;28;20037;-75
2023/12/20 04:34:00;;;;;;;946.20;875.30;;;5.80;99.90;;;;;;5010417;28;20132;-75
2023/12/20 04:36:26;;;;;;;934.37;865.40;;;5.80;99.90;;;;;;4993965;28;20066;-75
2023/12/20 04:38:53;;;;;;;1014.27;925.17;;;5.80;99.90;;;;;;5009363;28;20053;-75
2023/12/20 04:41:19;;;;;;;963.67;886.60;;;5.80;99.90;;;;;;4990328;28;20437;-75
2023/12/20 04:43:45;;;;;;;947.23;876.17;;;5.80;99.90;;;;;;4987652;28;20045;-75
2023/12/20 04:46:10;;;;;;;949.97;877.83;;;5.90;99.90;;;;;;5010085;28;20128;-76
2023/12/20 04:48:36;;;;;;;1021.30;936.83;;;5.90;99.90;;;;;;5009656;28;20053;-75
2023/12/20 04:51:02;;;;;;;1000.00;920.42;;;5.90;99.90;;;;;;4994069;28;20371;-75
2023/12/20 04:53:28;;;;;;;1015.37;932.23;;;5.90;99.90;;;;;;5010911;28;20259;-75
2023/12/20 04:55:54;;;;;;;1018.37;932.37;;;5.90;99.90;;;;;;4994507;28;20129;-75
2023/12/20 04:58:19;;;;;;;990.73;912.17;;;5.90;99.90;;;;;;4993702;28;20053;-75
2023/12/20 05:00:45;;;;;;;981.47;900.83;;;5.90;99.90;;;;;;5009840;28;20045;-75
2023/12/20 05:03:11;;;;;;;1042.07;953.27;;;5.90;99.90;;;;;;5010331;28;20072;-75
2023/12/20 05:05:38;;;;;;;1038.77;950.60;;;6.00;99.90;;;;;;4993478;28;20374;-75
2023/12/20 05:08:04;;;;;;;1058.97;962.30;;;6.00;99.90;;;;;;4998069;28;20288;-75
2023/12/20 05:10:29;;;;;;;983.67;907.93;;;6.00;99.90;;;;;;5007483;28;20037;-75
2023/12/20 05:12:55;;;;;;;1057.27;958.03;;;6.00;99.90;;;;;;5009916;28;20136;-75
2023/12/20 05:15:21;;;;;;;1058.57;960.37;;;6.00;99.90;;;;;;5007596;28;20045;-75
2023/12/20 05:17:46;;;;;;;1030.97;941.40;;;6.10;99.90;;;;;;5010041;28;20081;-75
2023/12/20 05:20:12;;;;;;;989.23;912.33;;;6.10;99.90;;;;;;5004504;28;20038;-75
2023/12/20 05:22:38;;;;;;;1020.57;934.73;;;6.10;99.90;;;;;;4990603;28;20038;-75
2023/12/20 05:25:04;;;;;;;976.53;898.25;;;6.10;99.90;;;;;;5011211;28;20034;-75
2023/12/20 05:27:30;;;;;;;977.53;901.42;;;6.10;99.90;;;;;;5007163;28;20037;-74
2023/12/20 05:29:57;;;;;;;976.43;901.47;;;6.10;99.90;;;;;;5010344;28;20045;-74
2023/12/20 05:32:23;;;;;;;1045.65;948.70;;;6.10;99.90;;;;;;4991745;28;20038;-74
2023/12/20 05:34:49;;;;;;;984.78;910.30;;;6.10;99.90;;;;;;5010759;28;20506;-74
2023/12/20 05:37:15;;;;;;;1051.63;951.53;;;6.20;99.90;;;;;;4993682;28;20060;-75
2023/12/20 05:39:40;;;;;;;979.90;902.73;;;6.20;99.90;;;;;;5010163;28;20108;-74
2023/12/20 05:42:06;;;;;;;996.53;915.57;;;6.20;99.90;;;;;;4995861;28;20034;-74
2023/12/20 05:44:32;;;;;;;1095.27;987.77;;;6.20;99.90;;;;;;4993193;28;20034;-74
2023/12/20 05:46:57;;;;;;;1033.10;943.03;;;6.20;99.90;;;;;;5006426;28;20046;-74
2023/12/20 05:49:23;;;;;;;1222.53;966.77;;;6.30;99.90;;;;;;4994179;28;20124;-74
2023/12/20 05:51:50;;;;;;;982.10;904.77;;;6.30;99.90;;;;;;4989857;28;20081;-74
2023/12/20 05:54:16;;;;;;;1261.85;987.17;;;6.30;99.90;;;;;;4996270;28;20061;-74
2023/12/20 05:56:42;;;;;;;1102.10;992.93;;;6.30;99.90;;;;;;5010387;28;20072;-74
2023/12/20 05:59:08;;;;;;;1061.23;960.00;;;6.30;99.90;;;;;;5013018;28;20046;-74
2023/12/20 06:01:33;;;;;;;1006.43;916.33;;;6.40;99.90;;;;;;4996463;28;20045;-74
2023/12/20 06:03:59;;;;;;;1278.53;976.00;;;6.40;99.90;;;;;;5013763;28;20529;-74
2023/12/20 06:06:25;;;;;;;1007.70;925.40;;;6.40;99.90;;;;;;5012544;28;20045;-74
2023/12/20 06:08:51;;;;;;;1213.23;954.80;;;6.40;99.90;;;;;;5013537;28;20099;-74
2023/12/20 06:11:16;;;;;;;1044.60;950.23;;;6.40;99.90;;;;;;4990232;28;20045;-74
2023/12/20 06:13:42;;;;;;;996.80;914.10;;;6.40;99.90;;;;;;4995323;28;20038;-74
2023/12/20 06:16:08;;;;;;;1202.20;972.07;;;6.40;99.90;;;;;;4992332;28;20061;-74
2023/12/20 06:18:34;;;;;;;1050.33;951.97;;;6.40;99.90;;;;;;4995613;28;20124;-74
2023/12/20 06:20:59;;;;;;;981.97;904.40;;;6.50;99.90;;;;;;5011676;28;20033;-74
2023/12/20 06:23:25;;;;;;;1012.73;920.20;;;6.50;99.90;;;;;;4997664;28;20042;-74
2023/12/20 06:25:51;;;;;;;981.43;906.00;;;6.50;99.90;;;;;;4995988;28;20030;-74
2023/12/20 06:28:16;;;;;;;1149.97;981.73;;;6.50;99.90;;;;;;4996258;28;20049;-74
2023/12/20 06:30:42;;;;;;;975.70;897.50;;;6.50;99.90;;;;;;5012811;28;20108;-74
2023/12/20 06:33:09;;;;;;;1000.23;920.77;;;6.50;99.90;;;;;;5013200;28;20042;-74
2023/12/20 06:35:35;;;;;;;1004.55;917.28;;;6.50;99.90;;;;;;5012612;28;20065;-75
2023/12/20 06:38:01;;;;;;;1222.50;982.47;;;6.60;99.90;;;;;;5012206;28;20045;-75
2023/12/20 06:40:27;;;;;;;1046.33;942.57;;;6.60;99.90;;;;;;4995707;28;20395;-75
2023/12/20 06:42:52;;;;;;;1073.67;971.47;;;6.60;99.90;;;;;;5015380;28;20045;-75
2023/12/20 06:45:18;;;;;;;995.77;913.40;;;6.70;99.90;;;;;;5011679;28;20402;-75
2023/12/20 06:47:43;;;;;;;1039.53;943.33;;;6.70;99.90;;;;;;5012342;28;20049;-76
2023/12/20 06:50:09;;;;;;;1092.57;972.73;;;6.70;99.90;;;;;;5012390;28;20045;-76
2023/12/20 06:52:35;;;;;;;973.80;895.40;;;6.70;99.90;;;;;;5012819;28;20045;-74
2023/12/20 06:55:01;;;;;;;962.63;887.80;;;6.70;99.90;;;;;;5010220;28;20034;-76
2023/12/20 06:57:27;;;;;;;1005.53;919.38;;;6.80;99.90;;;;;;5004155;28;20089;-75
2023/12/20 06:59:53;;;;;;;978.77;901.03;;;6.80;99.90;;;;;;4996278;28;20076;-76
2023/12/20 07:02:19;;;;;;;1011.90;926.75;;;6.80;99.90;;;;;;5012189;28;20179;-75
2023/12/20 07:04:44;;;;;;;1027.33;942.60;;;6.80;99.90;;;;;;5010177;28;20038;-76
2023/12/20 07:07:10;;;;;;;1015.47;930.00;;;6.80;99.90;;;;;;5016134;28;20041;-76
2023/12/20 07:09:36;;;;;;;987.97;905.57;;;6.80;99.90;;;;;;5011875;28;20235;-76
2023/12/20 07:12:02;;;;;;;977.25;896.97;;;6.80;99.90;;;;;;4996499;28;20042;-76
2023/12/20 07:14:29;;;;;;;1007.22;928.53;;;6.80;99.90;;;;;;4997843;28;20041;-76
2023/12/20 07:16:54;;;;;;;1018.70;930.17;;;6.70;99.90;;;;;;5011775;28;20041;-75
2023/12/20 07:19:20;;;;;;;1048.53;959.43;;;6.70;99.90;;;;;;4995244;28;20128;-75
2023/12/20 07:21:46;;;;;;;1020.03;928.90;;;6.60;99.90;;;;;;4994637;28;20061;-75
2023/12/20 07:24:11;;;;;;;1045.07;954.83;;;6.60;99.90;;;;;;5010097;28;20034;-76
2023/12/20 07:26:38;;;;;;;1017.40;929.27;;;6.60;99.90;;;;;;5010215;28;20465;-75
2023/12/20 07:29:04;;;;;;;1635.35;999.90;;;6.70;99.90;;;;;;4994299;28;20070;-75
2023/12/20 07:31:30;;;;;;;995.17;904.83;;;6.70;99.90;;;;;;5011980;28;20104;-75
2023/12/20 07:33:56;;;;;;;1064.68;966.95;;;6.70;99.90;;;;;;4995694;28;20487;-75
2023/12/20 07:36:22;;;;;;;951.10;879.07;;;6.80;99.90;;;;;;5011275;28;20124;-75
2023/12/20 07:38:48;;;;;;;1808.77;999.90;;;6.80;99.90;;;;;;5011411;28;20489;-74
2023/12/20 07:41:15;;;;;;;943.60;873.03;;;6.90;99.90;;;;;;5012662;28;20124;-76
2023/12/20 07:43:41;;;;;;;1086.50;954.08;;;6.90;99.90;;;;;;5008942;28;20300;-75
2023/12/20 07:46:08;;;;;;;1054.83;958.17;;;6.90;99.90;;;;;;5011292;28;20084;-75
2023/12/20 07:48:36;;;;;;;1014.70;908.72;;;6.90;99.90;;;;;;5007612;28;20046;-74
2023/12/20 07:51:03;;;;;;;958.30;887.25;;;6.80;99.90;;;;;;5010424;28;20099;-75
2023/12/20 07:53:29;;;;;;;1038.03;919.78;;;6.80;99.90;;;;;;4995669;28;20057;-74
2023/12/20 07:55:55;;;;;;;1003.57;915.17;;;6.80;99.90;;;;;;5010207;28;20135;-75
2023/12/20 07:58:21;;;;;;;1021.73;937.53;;;6.70;99.90;;;;;;5011123;28;20046;-75
2023/12/20 08:00:47;;;;;;;988.85;904.92;;;6.80;99.90;;;;;;5010440;28;20327;-75
2023/12/20 08:03:13;;;;;;;972.80;895.47;;;6.80;99.90;;;;;;5011067;28;20037;-74
2023/12/20 08:05:40;;;;;;;994.87;913.37;;;6.80;99.90;;;;;;5010343;28;20038;-74
2023/12/20 08:08:06;;;;;;;1058.47;953.17;;;6.90;99.90;;;;;;4994929;28;20064;-74
2023/12/20 08:10:32;;;;;;;1015.25;926.03;;;6.90;99.90;;;;;;5011609;28;20068;-74
2023/12/20 08:12:58;;;;;;;1037.53;946.73;;;7.00;99.90;;;;;;5011279;28;20122;-74
2023/12/20 08:15:23;;;;;;;961.63;888.37;;;7.00;99.90;;;;;;4988017;28;20066;-75
2023/12/20 08:17:53;;;;;;;965.50;889.17;;;6.90;99.90;;;;;;5011195;28;20042;-74
2023/12/20 08:20:18;;;;;;;1014.15;912.78;;;6.90;99.90;;;;;;5004588;28;20121;-74
2023/12/20 08:22:44;;;;;;;957.90;884.43;;;6.80;99.90;;;;;;4999442;28;20475;-74
2023/12/20 08:25:10;;;;;;;999.83;913.27;;;6.80;99.90;;;;;;4994206;28;20041;-74
2023/12/20 08:27:42;;;;;;;934.77;867.27;;;6.80;99.90;;;;;;5009394;28;20077;-73
2023/12/20 08:30:12;;;;;;;1033.90;943.45;;;6.90;99.90;;;;;;5009109;28;20048;-74
2023/12/20 08:32:38;;;;;;;1017.22;929.00;;;7.00;99.90;;;;;;5010495;28;20037;-74
2023/12/20 08:35:04;;;;;;;963.70;887.93;;;7.00;99.90;;;;;;5010652;28;20483;-74
2023/12/20 08:37:31;;;;;;;1012.65;920.47;;;7.00;99.90;;;;;;5008883;28;20505;-74
2023/12/20 08:39:57;;;;;;;951.38;877.92;;;7.10;99.90;;;;;;5010606;28;20052;-74
2023/12/20 08:42:24;;;;;;;1412.50;974.87;;;7.10;99.90;;;;;;4985082;28;20483;-75
2023/12/20 08:44:50;;;;;;;1081.40;966.90;;;7.10;99.90;;;;;;5025764;28;20042;-75
2023/12/20 08:47:16;;;;;;;1131.73;988.33;;;7.10;99.90;;;;;;4983713;28;20057;-75
2023/12/20 08:49:43;;;;;;;1004.70;917.65;;;7.10;99.90;;;;;;5008912;28;20449;-75
2023/12/20 08:52:09;;;;;;;1034.60;935.35;;;7.20;99.90;;;;;;4994371;28;20100;-75
2023/12/20 08:54:34;;;;;;;1004.57;911.83;;;7.20;99.90;;;;;;4989645;28;20030;-76
2023/12/20 08:57:00;;;;;;;1006.67;923.63;;;7.20;99.90;;;;;;5010218;28;20076;-75
2023/12/20 08:59:26;;;;;;;1460.50;999.90;;;7.20;99.90;;;;;;5009666;28;20038;-75
2023/12/20 09:01:54;;;;;;;965.67;890.93;;;7.20;99.90;;;;;;5009412;28;20133;-74
2023/12/20 09:04:20;;;;;;;950.00;877.60;;;7.20;99.90;;;;;;5008964;28;20035;-75
2023/12/20 09:06:46;;;;;;;1687.35;999.90;;;7.20;99.90;;;;;;4995074;28;20046;-75
2023/12/20 09:09:13;;;;;;;923.87;858.30;;;7.10;99.90;;;;;;4986256;28;20112;-75
2023/12/20 09:11:39;;;;;;;1068.05;953.88;;;7.00;99.90;;;;;;5009336;28;20120;-75
2023/12/20 09:14:05;;;;;;;1560.27;989.50;;;7.00;99.90;;;;;;5009258;28;20125;-75
2023/12/20 09:16:31;;;;;;;1036.77;941.20;;;7.00;99.90;;;;;;4992426;28;20042;-75
2023/12/20 09:18:57;;;;;;;942.72;869.75;;;7.00;99.90;;;;;;5009179;28;20379;-75
2023/12/20 09:21:23;;;;;;;1031.30;929.25;;;6.80;99.90;;;;;;4992067;28;20038;-75
2023/12/20 09:23:49;;;;;;;892.50;830.83;;;6.60;99.90;;;;;;5009203;28;20050;-74
2023/12/20 09:26:15;;;;;;;962.30;886.90;;;6.30;99.90;;;;;;5006258;28;20099;-74
2023/12/20 09:28:40;;;;;;;1128.73;994.67;;;6.10;99.90;;;;;;4993113;28;20052;-74
2023/12/20 09:31:06;;;;;;;976.30;903.37;;;6.00;99.90;;;;;;5007742;28;20073;-74
2023/12/20 09:33:33;;;;;;;979.70;900.83;;;5.90;99.90;;;;;;5008224;28;20851;-73
2023/12/20 09:35:58;;;;;;;1200.85;943.05;;;5.80;99.90;;;;;;5009545;28;20064;-74
2023/12/20 09:38:24;;;;;;;970.63;891.43;;;5.70;99.90;;;;;;4993674;28;20053;-73
2023/12/20 09:40:50;;;;;;;913.93;850.77;;;5.70;99.90;;;;;;5010429;28;20042;-74
2023/12/20 09:43:19;;;;;;;1030.00;934.57;;;5.60;99.90;;;;;;5013925;28;20081;-74
2023/12/20 09:45:47;;;;;;;1055.90;939.70;;;5.60;99.90;;;;;;4993162;28;20847;-74
2023/12/20 09:48:17;;;;;;;1047.70;936.35;;;5.70;99.90;;;;;;5009739;28;20058;-74
2023/12/20 09:50:44;;;;;;;1710.13;999.90;;;5.70;99.90;;;;;;5012602;28;20048;-74
2023/12/20 09:53:11;;;;;;;1005.88;921.13;;;5.70;99.90;;;;;;4994084;28;20045;-74
2023/12/20 09:55:38;;;;;;;943.90;869.90;;;5.70;99.90;;;;;;5012405;28;20402;-74
2023/12/20 09:58:05;;;;;;;960.00;881.42;;;5.80;99.90;;;;;;5013609;28;20200;-74
2023/12/20 10:00:31;;;;;;;948.58;875.15;;;5.80;99.90;;;;;;5012607;28;20049;-74
2023/12/20 10:02:58;;;;;;;943.47;856.27;;;5.80;99.90;;;;;;5012576;28;20042;-74
2023/12/20 10:05:32;;;;;;;983.25;885.45;;;5.80;99.90;;;;;;4996513;28;20041;-74
2023/12/20 10:07:59;;;;;;;977.08;894.15;;;5.70;99.90;;;;;;5013343;28;20049;-74
2023/12/20 10:10:25;;;;;;;960.20;881.53;;;5.70;99.90;;;;;;5012728;28;20045;-74
2023/12/20 10:13:08;;;;;;;850.50;792.50;;;5.70;99.90;;;;;;5012700;28;20044;-74
2023/12/20 10:15:34;;;;;;;910.80;843.65;;;5.80;99.90;;;;;;4995962;28;20049;-74
2023/12/20 10:18:03;;;;;;;952.08;867.15;;;5.80;99.90;;;;;;4986390;28;20052;-74
2023/12/20 10:20:30;;;;;;;936.08;861.47;;;5.90;99.90;;;;;;4994310;28;20034;-73
2023/12/20 10:22:56;;;;;;;930.15;857.05;;;6.00;99.90;;;;;;4996337;28;20038;-73
2023/12/20 10:25:22;;;;;;;907.38;842.30;;;6.00;99.90;;;;;;4989555;28;20410;-73
2023/12/20 10:27:50;;;;;;;966.27;883.07;;;6.10;99.90;;;;;;4995966;28;20042;-73
2023/12/20 10:30:16;;;;;;;958.08;878.45;;;6.10;99.90;;;;;;5012643;28;20049;-73
2023/12/20 10:32:42;;;;;;;892.60;830.57;;;6.10;99.90;;;;;;4995752;28;20041;-73
2023/12/20 10:35:08;;;;;;;964.60;891.97;;;6.20;99.90;;;;;;5012207;28;20054;-73
2023/12/20 10:37:38;;;;;;;981.95;907.55;;;6.20;99.90;;;;;;5010926;28;20103;-73
2023/12/20 10:40:06;;;;;;;1021.22;938.00;;;6.30;99.90;;;;;;5012065;28;20125;-73
2023/12/20 10:42:33;;;;;;;971.75;898.20;;;6.30;99.90;;;;;;5014351;28;20164;-73
2023/12/20 10:45:00;;;;;;;1008.10;928.05;;;6.30;99.90;;;;;;5012526;28;20065;-73
2023/12/20 10:47:29;;;;;;;938.15;870.42;;;6.30;99.90;;;;;;4992121;28;20073;-74
2023/12/20 10:49:54;;;;;;;982.00;906.72;;;6.30;99.90;;;;;;5007327;28;20060;-73
2023/12/20 10:52:24;;;;;;;958.33;888.13;;;6.30;99.90;;;;;;5012753;28;20091;-73
2023/12/20 10:54:50;;;;;;;997.42;917.55;;;6.30;99.90;;;;;;4992855;28;20034;-73
2023/12/20 10:57:19;;;;;;;949.43;878.80;;;6.30;99.90;;;;;;4986671;28;20180;-73
2023/12/20 10:59:49;;;;;;;1007.85;925.58;;;6.40;99.90;;;;;;4994716;28;20042;-73
2023/12/20 11:02:15;;;;;;;1003.15;920.92;;;6.40;99.90;;;;;;4995492;28;20478;-73
2023/12/20 11:04:53;;;;;;;1013.08;930.40;;;6.40;99.90;;;;;;5011998;28;20390;-73
2023/12/20 11:07:40;;;;;;;972.00;898.33;;;6.40;99.90;;;;;;5011994;28;20486;-73
2023/12/20 11:10:20;;;;;;;989.38;911.38;;;6.50;99.90;;;;;;5008117;28;20073;-73
2023/12/20 11:12:54;;;;;;;987.65;912.28;;;6.50;99.90;;;;;;5011121;28;20116;-73
2023/12/20 11:15:20;;;;;;;989.40;913.30;;;6.60;99.90;;;;;;5011952;28;20064;-73
2023/12/20 11:17:46;;;;;;;999.47;920.85;;;6.60;99.90;;;;;;4994784;28;20490;-73
2023/12/20 11:20:13;;;;;;;1028.87;943.53;;;6.70;99.90;;;;;;5010151;28;20041;-73
2023/12/20 11:22:51;;;;;;;1003.45;923.67;;;6.80;99.90;;;;;;5009635;28;20052;-73
2023/12/20 11:25:17;;;;;;;1014.58;933.70;;;6.90;99.90;;;;;;5011534;28;20117;-73
2023/12/20 11:27:43;;;;;;;1006.80;929.17;;;7.00;99.90;;;;;;5011223;28;20417;-73
2023/12/20 11:30:09;;;;;;;1039.72;952.10;;;7.00;99.90;;;;;;5011035;28;20041;-73
2023/12/20 11:32:36;;;;;;;1038.88;953.35;;;7.10;99.90;;;;;;5009825;28;20048;-73
2023/12/20 11:35:08;;;;;;;977.13;903.00;;;7.10;99.90;;;;;;4994464;28;20041;-74
2023/12/20 11:37:39;;;;;;;993.55;916.92;;;7.10;99.90;;;;;;5010307;28;20089;-73
2023/12/20 11:40:11;;;;;;;1046.47;957.70;;;7.10;99.90;;;;;;5009848;28;20386;-73
2023/12/20 11:42:55;;;;;;;1010.75;932.78;;;7.10;99.90;;;;;;5014060;28;20516;-73
2023/12/20 11:45:24;;;;;;;979.33;905.47;;;7.10;99.90;;;;;;4992683;28;20042;-73
2023/12/20 11:47:51;;;;;;;1037.13;951.17;;;7.10;99.90;;;;;;5010806;28;20042;-74
2023/12/20 11:50:17;;;;;;;1030.30;946.97;;;7.10;99.90;;;;;;5004026;28;20517;-74
2023/12/20 11:52:43;;;;;;;1055.78;961.45;;;7.10;99.90;;;;;;4990712;28;20099;-75
2023/12/20 11:55:09;;;;;;;1021.40;938.30;;;7.10;99.90;;;;;;4985007;28;20721;-74
2023/12/20 11:57:36;;;;;;;1043.23;955.43;;;7.00;99.90;;;;;;4988034;28;20041;-73
2023/12/20 12:00:06;;;;;;;1194.43;994.75;;;7.00;99.90;;;;;;4990891;28;20037;-74
2023/12/20 12:02:32;;;;;;;1085.72;981.10;;;6.90;99.90;;;;;;4986622;28;20184;-74
2023/12/20 12:04:59;;;;;;;1046.40;958.10;;;6.80;99.90;;;;;;5007879;28;20065;-74
2023/12/20 12:07:25;;;;;;;1062.50;969.90;;;6.70;99.90;;;;;;5007757;28;20041;-74
2023/12/20 12:09:51;;;;;;;1069.73;975.10;;;6.70;99.90;;;;;;5007301;28;20549;-74